King Philippos — 9HA3023 — position and weather

sailwx.info

Track history (hours):
 
Tides and Currents Weather Stations Pressure Air Temp Water Temp Dewpoint Dewpoint Depression Visibility Wind Speed Wind Dir Waves Ship Positions

King Philippos

Last reported at 2015-Jul-25 18:17 UTC. Time now 2015-Jul-28 13:21 UTC.
Position N 42°44' E 034°08'.

Length 250 m; draft 11.9 m.

Type: Tanker. MMSI: 229046000.

Date/timePositionNaut miles runAvg speedWind from/ knotsBaromVisibWave heightAir tempDewpointWater temp
2015-Jul-25 18:17N 42°44' E 034°08'911.9
2015-Jul-25 17:34N 42°47' E 034°20'1211.9
2015-Jul-25 16:34N 42°51' E 034°35'1212.2
2015-Jul-25 15:34N 42°55' E 034°50'1212.1
2015-Jul-25 14:34N 42°59' E 035°06'1211.9
2015-Jul-25 13:34N 43°03' E 035°21'1211.8
2015-Jul-25 12:34N 43°07' E 035°37'1211.8
2015-Jul-25 11:34N 43°11' E 035°52'1212.0
2015-Jul-25 10:34N 43°15' E 036°07'1212.0
2015-Jul-25 09:34N 43°19' E 036°23'1212.0
2015-Jul-25 08:34N 43°23' E 036°39'1211.9
2015-Jul-25 07:34N 43°27' E 036°54'1211.8
2015-Jul-25 06:34N 43°31' E 037°09'1411.9
2015-Jul-25 05:21N 43°36' E 037°28'1012.3
2015-Jul-25 04:34N 43°39' E 037°41'1212.4
2015-Jul-25 03:34N 43°43' E 037°57'1212.4
2015-Jul-25 02:33N 43°47' E 038°13'1212.3
2015-Jul-25 01:34N 43°52' E 038°29'1212.2
2015-Jul-25 00:32N 43°56' E 038°45'16 1.5
2015-Jul-24 14:17N 44°03' E 039°05'0 0.0
2015-Jul-24 13:32N 44°03' E 039°05'0 0.0
2015-Jul-24 12:32N 44°03' E 039°05'0 0.0
2015-Jul-24 11:32N 44°03' E 039°05'0 0.0
2015-Jul-24 10:32N 44°03' E 039°05'0 0.0
2015-Jul-24 09:32N 44°03' E 039°05'0 0.0
2015-Jul-24 08:32N 44°03' E 039°05'0 0.0
2015-Jul-24 07:32N 44°03' E 039°05'0 0.0
2015-Jul-24 06:32N 44°03' E 039°05'0 0.0
2015-Jul-24 05:32N 44°03' E 039°05'0 0.0
2015-Jul-24 04:32N 44°03' E 039°05'0 0.0
2015-Jul-24 03:32N 44°03' E 039°05'0 0.0
2015-Jul-24 02:32N 44°03' E 039°05'3 2.6
2015-Jul-24 01:33N 44°05' E 039°04'0 0.0
2015-Jul-24 00:33N 44°05' E 039°04'0 0.0
2015-Jul-23 23:33N 44°05' E 039°04'0 0.0
2015-Jul-23 22:33N 44°05' E 039°04'0 0.0
2015-Jul-23 21:33N 44°05' E 039°04'0 0.0
2015-Jul-23 20:33N 44°05' E 039°04'0 0.0
2015-Jul-23 19:33N 44°05' E 039°04'0 0.0
2015-Jul-23 18:33N 44°05' E 039°04'0 0.0
2015-Jul-23 17:33N 44°05' E 039°04'0 0.0
2015-Jul-23 16:33N 44°05' E 039°04'0 0.0
2015-Jul-23 15:33N 44°05' E 039°04'0 0.0
2015-Jul-23 14:33N 44°05' E 039°04'0 0.0
2015-Jul-23 13:33N 44°05' E 039°04'0 0.0
2015-Jul-23 12:33N 44°05' E 039°04'0 0.0
2015-Jul-23 11:33N 44°05' E 039°04'0 0.0
2015-Jul-23 10:33N 44°05' E 039°04'0 0.0
2015-Jul-23 09:33N 44°05' E 039°04'0 0.0
2015-Jul-23 08:33N 44°05' E 039°04'0 0.0
2015-Jul-23 07:33N 44°05' E 039°04'0 0.0
2015-Jul-23 06:33N 44°05' E 039°04'0 0.0
2015-Jul-23 05:33N 44°05' E 039°04'0 0.0
2015-Jul-23 04:33N 44°05' E 039°04'0 0.0
2015-Jul-23 03:33N 44°05' E 039°04'0 0.0
2015-Jul-23 02:30N 44°05' E 039°04'0 0.0
2015-Jul-23 01:27N 44°05' E 039°04'0 0.0
2015-Jul-23 00:33N 44°05' E 039°04'0 0.0
2015-Jul-22 23:33N 44°05' E 039°04'0 0.0
2015-Jul-22 22:33N 44°05' E 039°04'0 0.0
2015-Jul-22 21:33N 44°05' E 039°04'0 0.0
2015-Jul-22 20:33N 44°05' E 039°04'0 0.0
2015-Jul-22 19:33N 44°05' E 039°04'0 0.0
2015-Jul-22 18:30N 44°05' E 039°04'0 0.0
2015-Jul-22 17:33N 44°05' E 039°04'0 0.0
2015-Jul-22 16:33N 44°05' E 039°04'0 0.0
2015-Jul-22 15:33N 44°05' E 039°04'0 0.0
2015-Jul-22 14:33N 44°05' E 039°04'0 0.0
2015-Jul-22 13:33N 44°05' E 039°04'0 0.0
2015-Jul-22 12:33N 44°05' E 039°04'0 0.0
2015-Jul-22 11:33N 44°05' E 039°04'0 0.0
2015-Jul-22 10:33N 44°05' E 039°04'1 1.5
2015-Jul-22 09:33N 44°04' E 039°04'2 1.8
2015-Jul-22 08:33N 44°02' E 039°05'0 0.0
2015-Jul-22 07:28N 44°02' E 039°05'0 0.0
2015-Jul-22 06:31N 44°02' E 039°05'0 0.0
2015-Jul-22 05:31N 44°02' E 039°05'0 0.0
2015-Jul-22 04:31N 44°02' E 039°05'0 0.0
2015-Jul-22 03:31N 44°02' E 039°05'0 0.0
2015-Jul-22 02:31N 44°02' E 039°05'0 0.0
2015-Jul-22 01:31N 44°02' E 039°05'0 0.0
2015-Jul-22 00:31N 44°02' E 039°05'0 0.0
2015-Jul-21 23:31N 44°02' E 039°05'0 0.0
2015-Jul-21 22:31N 44°02' E 039°05'0 0.0
2015-Jul-21 21:31N 44°02' E 039°05'0 0.0
2015-Jul-21 20:31N 44°02' E 039°05'0 0.0
2015-Jul-21 19:31N 44°02' E 039°05'0 0.0
2015-Jul-21 18:31N 44°02' E 039°05'0 0.1
2015-Jul-21 17:31N 44°02' E 039°05'0 0.0
2015-Jul-21 16:31N 44°02' E 039°05'0 0.0
2015-Jul-21 15:31N 44°02' E 039°05'0 0.0
2015-Jul-21 14:31N 44°02' E 039°06'0 0.0
2015-Jul-21 13:31N 44°02' E 039°06'0 0.0
2015-Jul-21 12:31N 44°02' E 039°05'0 0.0
2015-Jul-21 11:31N 44°02' E 039°06'0 0.0
2015-Jul-21 10:31N 44°02' E 039°06'0 0.0
2015-Jul-21 09:31N 44°02' E 039°06'0 0.0
2015-Jul-21 08:31N 44°02' E 039°06'0 0.0
2015-Jul-21 07:31N 44°02' E 039°06'1 1.5
2015-Jul-21 06:33N 44°02' E 039°04'1110.9
2015-Jul-21 05:33N 43°57' E 038°50'1211.8
2015-Jul-21 04:33N 43°54' E 038°34'1211.9
2015-Jul-21 03:33N 43°51' E 038°18'1211.9
2015-Jul-21 02:33N 43°48' E 038°02'1212.3
2015-Jul-21 01:33N 43°46' E 037°45'1312.4
2015-Jul-21 00:29N 43°43' E 037°27'1212.4
2015-Jul-20 23:32N 43°40' E 037°12'1212.2
2015-Jul-20 22:33N 43°37' E 036°56'1212.2
2015-Jul-20 21:33N 43°34' E 036°39'1312.2
2015-Jul-20 20:30N 43°31' E 036°22'1312.3
2015-Jul-20 19:27N 43°28' E 036°05'1312.3
2015-Jul-20 18:25N 43°25' E 035°48'1012.2
2015-Jul-20 17:33N 43°22' E 035°34'1211.8
2015-Jul-20 16:32N 43°19' E 035°18'1211.8
2015-Jul-20 15:33N 43°16' E 035°02'1211.7
2015-Jul-20 14:33N 43°13' E 034°47'1211.7
2015-Jul-20 13:32N 43°11' E 034°31'25611.1
2015-Jul-19 14:31N 41°22' E 029°17'29 9.7
2015-Jul-19 11:33N 40°57' E 028°59'7 6.7
2015-Jul-19 10:33N 40°52' E 028°53'7 7.1
2015-Jul-19 09:33N 40°46' E 028°48'6 5.6
2015-Jul-19 08:33N 40°40' E 028°46'3 3.1
2015-Jul-19 07:33N 40°38' E 028°43'1 0.7
2015-Jul-19 06:33N 40°39' E 028°43'1 0.8
2015-Jul-19 05:33N 40°40' E 028°44'1 1.0
2015-Jul-19 04:33N 40°40' E 028°45'4 1.0
2015-Jul-19 00:28N 40°44' E 028°47'1 0.7
2015-Jul-18 23:31N 40°45' E 028°47'1 1.1
2015-Jul-18 22:33N 40°46' E 028°46'1 0.8
2015-Jul-18 21:33N 40°46' E 028°47'1 1.0
2015-Jul-18 20:30N 40°46' E 028°48'273 5.4
2015-Jul-16 18:07N 37°41' E 024°30'  
Track history (hours):
 
Tides and Currents Weather Stations Pressure Air Temp Water Temp Dewpoint Dewpoint Depression Visibility Wind Speed Wind Dir Waves Ship Positions

King Philippos

Last reported at 2015-Jul-25 18:17 UTC. Time now 2015-Jul-28 13:21 UTC.
Position N 42°44' E 034°08'.

Length 250 m; draft 11.9 m.

Type: Tanker. MMSI: 229046000.

Date/timePositionNaut miles runAvg speedWind from/ knotsBaromVisibWave heightAir tempDewpointWater temp
2015-Jul-25 18:17N 42°44' E 034°08'911.9
2015-Jul-25 17:34N 42°47' E 034°20'1211.9
2015-Jul-25 16:34N 42°51' E 034°35'1212.2
2015-Jul-25 15:34N 42°55' E 034°50'1212.1
2015-Jul-25 14:34N 42°59' E 035°06'1211.9
2015-Jul-25 13:34N 43°03' E 035°21'1211.8
2015-Jul-25 12:34N 43°07' E 035°37'1211.8
2015-Jul-25 11:34N 43°11' E 035°52'1212.0
2015-Jul-25 10:34N 43°15' E 036°07'1212.0
2015-Jul-25 09:34N 43°19' E 036°23'1212.0
2015-Jul-25 08:34N 43°23' E 036°39'1211.9
2015-Jul-25 07:34N 43°27' E 036°54'1211.8
2015-Jul-25 06:34N 43°31' E 037°09'1411.9
2015-Jul-25 05:21N 43°36' E 037°28'1012.3
2015-Jul-25 04:34N 43°39' E 037°41'1212.4
2015-Jul-25 03:34N 43°43' E 037°57'1212.4
2015-Jul-25 02:33N 43°47' E 038°13'1212.3
2015-Jul-25 01:34N 43°52' E 038°29'1212.2
2015-Jul-25 00:32N 43°56' E 038°45'16 1.5
2015-Jul-24 14:17N 44°03' E 039°05'0 0.0
2015-Jul-24 13:32N 44°03' E 039°05'0 0.0
2015-Jul-24 12:32N 44°03' E 039°05'0 0.0
2015-Jul-24 11:32N 44°03' E 039°05'0 0.0
2015-Jul-24 10:32N 44°03' E 039°05'0 0.0
2015-Jul-24 09:32N 44°03' E 039°05'0 0.0
2015-Jul-24 08:32N 44°03' E 039°05'0 0.0
2015-Jul-24 07:32N 44°03' E 039°05'0 0.0
2015-Jul-24 06:32N 44°03' E 039°05'0 0.0
2015-Jul-24 05:32N 44°03' E 039°05'0 0.0
2015-Jul-24 04:32N 44°03' E 039°05'0 0.0
2015-Jul-24 03:32N 44°03' E 039°05'0 0.0
2015-Jul-24 02:32N 44°03' E 039°05'3 2.6
2015-Jul-24 01:33N 44°05' E 039°04'0 0.0
2015-Jul-24 00:33N 44°05' E 039°04'0 0.0
2015-Jul-23 23:33N 44°05' E 039°04'0 0.0
2015-Jul-23 22:33N 44°05' E 039°04'0 0.0
2015-Jul-23 21:33N 44°05' E 039°04'0 0.0
2015-Jul-23 20:33N 44°05' E 039°04'0 0.0
2015-Jul-23 19:33N 44°05' E 039°04'0 0.0
2015-Jul-23 18:33N 44°05' E 039°04'0 0.0
2015-Jul-23 17:33N 44°05' E 039°04'0 0.0
2015-Jul-23 16:33N 44°05' E 039°04'0 0.0
2015-Jul-23 15:33N 44°05' E 039°04'0 0.0
2015-Jul-23 14:33N 44°05' E 039°04'0 0.0
2015-Jul-23 13:33N 44°05' E 039°04'0 0.0
2015-Jul-23 12:33N 44°05' E 039°04'0 0.0
2015-Jul-23 11:33N 44°05' E 039°04'0 0.0
2015-Jul-23 10:33N 44°05' E 039°04'0 0.0
2015-Jul-23 09:33N 44°05' E 039°04'0 0.0
2015-Jul-23 08:33N 44°05' E 039°04'0 0.0
2015-Jul-23 07:33N 44°05' E 039°04'0 0.0
2015-Jul-23 06:33N 44°05' E 039°04'0 0.0
2015-Jul-23 05:33N 44°05' E 039°04'0 0.0
2015-Jul-23 04:33N 44°05' E 039°04'0 0.0
2015-Jul-23 03:33N 44°05' E 039°04'0 0.0
2015-Jul-23 02:30N 44°05' E 039°04'0 0.0
2015-Jul-23 01:27N 44°05' E 039°04'0 0.0
2015-Jul-23 00:33N 44°05' E 039°04'0 0.0
2015-Jul-22 23:33N 44°05' E 039°04'0 0.0
2015-Jul-22 22:33N 44°05' E 039°04'0 0.0
2015-Jul-22 21:33N 44°05' E 039°04'0 0.0
2015-Jul-22 20:33N 44°05' E 039°04'0 0.0
2015-Jul-22 19:33N 44°05' E 039°04'0 0.0
2015-Jul-22 18:30N 44°05' E 039°04'0 0.0
2015-Jul-22 17:33N 44°05' E 039°04'0 0.0
2015-Jul-22 16:33N 44°05' E 039°04'0 0.0
2015-Jul-22 15:33N 44°05' E 039°04'0 0.0
2015-Jul-22 14:33N 44°05' E 039°04'0 0.0
2015-Jul-22 13:33N 44°05' E 039°04'0 0.0
2015-Jul-22 12:33N 44°05' E 039°04'0 0.0
2015-Jul-22 11:33N 44°05' E 039°04'0 0.0
2015-Jul-22 10:33N 44°05' E 039°04'1 1.5
2015-Jul-22 09:33N 44°04' E 039°04'2 1.8
2015-Jul-22 08:33N 44°02' E 039°05'0 0.0
2015-Jul-22 07:28N 44°02' E 039°05'0 0.0
2015-Jul-22 06:31N 44°02' E 039°05'0 0.0
2015-Jul-22 05:31N 44°02' E 039°05'0 0.0
2015-Jul-22 04:31N 44°02' E 039°05'0 0.0
2015-Jul-22 03:31N 44°02' E 039°05'0 0.0
2015-Jul-22 02:31N 44°02' E 039°05'0 0.0
2015-Jul-22 01:31N 44°02' E 039°05'0 0.0
2015-Jul-22 00:31N 44°02' E 039°05'0 0.0
2015-Jul-21 23:31N 44°02' E 039°05'0 0.0
2015-Jul-21 22:31N 44°02' E 039°05'0 0.0
2015-Jul-21 21:31N 44°02' E 039°05'0 0.0
2015-Jul-21 20:31N 44°02' E 039°05'0 0.0
2015-Jul-21 19:31N 44°02' E 039°05'0 0.0
2015-Jul-21 18:31N 44°02' E 039°05'0 0.1
2015-Jul-21 17:31N 44°02' E 039°05'0 0.0
2015-Jul-21 16:31N 44°02' E 039°05'0 0.0
2015-Jul-21 15:31N 44°02' E 039°05'0 0.0
2015-Jul-21 14:31N 44°02' E 039°06'0 0.0
2015-Jul-21 13:31N 44°02' E 039°06'0 0.0
2015-Jul-21 12:31N 44°02' E 039°05'0 0.0
2015-Jul-21 11:31N 44°02' E 039°06'0 0.0
2015-Jul-21 10:31N 44°02' E 039°06'0 0.0
2015-Jul-21 09:31N 44°02' E 039°06'0 0.0
2015-Jul-21 08:31N 44°02' E 039°06'0 0.0
2015-Jul-21 07:31N 44°02' E 039°06'1 1.5
2015-Jul-21 06:33N 44°02' E 039°04'1110.9
2015-Jul-21 05:33N 43°57' E 038°50'1211.8
2015-Jul-21 04:33N 43°54' E 038°34'1211.9
2015-Jul-21 03:33N 43°51' E 038°18'1211.9
2015-Jul-21 02:33N 43°48' E 038°02'1212.3
2015-Jul-21 01:33N 43°46' E 037°45'1312.4
2015-Jul-21 00:29N 43°43' E 037°27'1212.4
2015-Jul-20 23:32N 43°40' E 037°12'1212.2
2015-Jul-20 22:33N 43°37' E 036°56'1212.2
2015-Jul-20 21:33N 43°34' E 036°39'1312.2
2015-Jul-20 20:30N 43°31' E 036°22'1312.3
2015-Jul-20 19:27N 43°28' E 036°05'1312.3
2015-Jul-20 18:25N 43°25' E 035°48'1012.2
2015-Jul-20 17:33N 43°22' E 035°34'1211.8
2015-Jul-20 16:32N 43°19' E 035°18'1211.8
2015-Jul-20 15:33N 43°16' E 035°02'1211.7
2015-Jul-20 14:33N 43°13' E 034°47'1211.7
2015-Jul-20 13:32N 43°11' E 034°31'25611.1
2015-Jul-19 14:31N 41°22' E 029°17'29 9.7
2015-Jul-19 11:33N 40°57' E 028°59'7 6.7
2015-Jul-19 10:33N 40°52' E 028°53'7 7.1
2015-Jul-19 09:33N 40°46' E 028°48'6 5.6
2015-Jul-19 08:33N 40°40' E 028°46'3 3.1
2015-Jul-19 07:33N 40°38' E 028°43'1 0.7
2015-Jul-19 06:33N 40°39' E 028°43'1 0.8
2015-Jul-19 05:33N 40°40' E 028°44'1 1.0
2015-Jul-19 04:33N 40°40' E 028°45'4 1.0
2015-Jul-19 00:28N 40°44' E 028°47'1 0.7
2015-Jul-18 23:31N 40°45' E 028°47'1 1.1
2015-Jul-18 22:33N 40°46' E 028°46'1 0.8
2015-Jul-18 21:33N 40°46' E 028°47'1 1.0
2015-Jul-18 20:30N 40°46' E 028°48'273 5.4
2015-Jul-16 18:07N 37°41' E 024°30'  

Dump ship's entire track history